sensor_id;sensor_type;location;lat;lon;timestamp;pressure;altitude;pressure_sealevel;temperature;humidity
51460;BME280;37534;39.772;2.718;2023-04-27T00:00:37;101470.53;;;16.89;100.00
51460;BME280;37534;39.772;2.718;2023-04-27T00:03:03;101471.44;;;16.88;100.00
51460;BME280;37534;39.772;2.718;2023-04-27T00:05:34;101447.53;;;16.77;100.00
51460;BME280;37534;39.772;2.718;2023-04-27T00:08:00;101461.34;;;16.79;100.00
51460;BME280;37534;39.772;2.718;2023-04-27T00:10:26;101447.84;;;16.69;100.00
51460;BME280;37534;39.772;2.718;2023-04-27T00:12:51;101454.31;;;16.81;100.00
51460;BME280;37534;39.772;2.718;2023-04-27T00:15:17;101446.09;;;16.70;100.00
51460;BME280;37534;39.772;2.718;2023-04-27T00:17:42;101438.06;;;16.75;100.00
51460;BME280;37534;39.772;2.718;2023-04-27T00:20:08;101439.97;;;16.71;100.00
51460;BME280;37534;39.772;2.718;2023-04-27T00:22:37;101441.72;;;16.70;100.00
51460;BME280;37534;39.772;2.718;2023-04-27T00:25:03;101437.34;;;16.71;100.00
51460;BME280;37534;39.772;2.718;2023-04-27T00:27:28;101444.56;;;16.64;100.00
51460;BME280;37534;39.772;2.718;2023-04-27T00:29:54;101430.69;;;16.64;100.00
51460;BME280;37534;39.772;2.718;2023-04-27T00:32:19;101442.31;;;16.55;100.00
51460;BME280;37534;39.772;2.718;2023-04-27T00:34:45;101415.13;;;16.40;100.00
51460;BME280;37534;39.772;2.718;2023-04-27T00:37:11;101433.13;;;16.46;100.00
51460;BME280;37534;39.772;2.718;2023-04-27T00:39:36;101422.94;;;16.40;100.00
51460;BME280;37534;39.772;2.718;2023-04-27T00:42:02;101427.69;;;16.52;100.00
51460;BME280;37534;39.772;2.718;2023-04-27T00:44:27;101409.16;;;16.38;100.00
51460;BME280;37534;39.772;2.718;2023-04-27T00:46:53;101409.41;;;16.30;100.00
51460;BME280;37534;39.772;2.718;2023-04-27T00:49:19;101417.00;;;16.37;100.00
51460;BME280;37534;39.772;2.718;2023-04-27T00:51:48;101418.03;;;16.32;100.00
51460;BME280;37534;39.772;2.718;2023-04-27T00:54:14;101421.50;;;16.33;100.00
51460;BME280;37534;39.772;2.718;2023-04-27T00:56:43;101405.31;;;16.25;100.00
51460;BME280;37534;39.772;2.718;2023-04-27T00:59:08;101409.16;;;16.38;100.00
51460;BME280;37534;39.772;2.718;2023-04-27T01:01:34;101416.28;;;16.33;100.00
51460;BME280;37534;39.772;2.718;2023-04-27T01:04:00;101406.81;;;16.30;100.00
51460;BME280;37534;39.772;2.718;2023-04-27T01:06:25;101394.00;;;16.26;100.00
51460;BME280;37534;39.772;2.718;2023-04-27T01:08:54;101386.47;;;16.18;100.00
51460;BME280;37534;39.772;2.718;2023-04-27T01:11:20;101403.69;;;16.44;100.00
51460;BME280;37534;39.772;2.718;2023-04-27T01:13:45;101382.97;;;16.19;100.00
51460;BME280;37534;39.772;2.718;2023-04-27T01:16:11;101395.81;;;16.24;100.00
51460;BME280;37534;39.772;2.718;2023-04-27T01:18:37;101390.84;;;16.18;100.00
51460;BME280;37534;39.772;2.718;2023-04-27T01:21:05;101373.69;;;16.12;100.00
51460;BME280;37534;39.772;2.718;2023-04-27T01:23:31;101396.59;;;16.26;100.00
51460;BME280;37534;39.772;2.718;2023-04-27T01:25:56;101391.81;;;16.15;100.00
51460;BME280;37534;39.772;2.718;2023-04-27T01:28:22;101392.38;;;16.00;100.00
51460;BME280;37534;39.772;2.718;2023-04-27T01:30:47;101390.56;;;16.02;100.00
51460;BME280;37534;39.772;2.718;2023-04-27T01:33:13;101365.06;;;15.88;100.00
51460;BME280;37534;39.772;2.718;2023-04-27T01:35:39;101369.19;;;15.93;100.00
51460;BME280;37534;39.772;2.718;2023-04-27T01:38:04;101367.19;;;16.00;100.00
51460;BME280;37534;39.772;2.718;2023-04-27T01:40:30;101352.06;;;15.88;100.00
51460;BME280;37534;39.772;2.718;2023-04-27T01:42:55;101367.56;;;15.91;100.00
51460;BME280;37534;39.772;2.718;2023-04-27T01:48:24;101386.34;;;15.75;100.00
51460;BME280;37534;39.772;2.718;2023-04-27T01:50:49;101369.28;;;15.67;100.00
51460;BME280;37534;39.772;2.718;2023-04-27T01:53:15;101375.28;;;15.69;100.00
51460;BME280;37534;39.772;2.718;2023-04-27T01:55:40;101379.09;;;15.84;100.00
51460;BME280;37534;39.772;2.718;2023-04-27T01:58:06;101381.75;;;15.82;100.00
51460;BME280;37534;39.772;2.718;2023-04-27T02:00:31;101372.59;;;15.95;100.00
51460;BME280;37534;39.772;2.718;2023-04-27T02:02:57;101376.97;;;15.93;100.00
51460;BME280;37534;39.772;2.718;2023-04-27T02:05:24;101372.31;;;15.80;100.00
51460;BME280;37534;39.772;2.718;2023-04-27T02:07:53;101380.56;;;15.67;100.00
51460;BME280;37534;39.772;2.718;2023-04-27T02:10:18;101379.88;;;15.62;100.00
51460;BME280;37534;39.772;2.718;2023-04-27T02:12:46;101364.31;;;15.61;100.00
51460;BME280;37534;39.772;2.718;2023-04-27T02:15:12;101371.09;;;15.65;100.00
51460;BME280;37534;39.772;2.718;2023-04-27T02:17:38;101353.66;;;15.67;100.00
51460;BME280;37534;39.772;2.718;2023-04-27T02:20:05;101366.56;;;15.70;100.00
51460;BME280;37534;39.772;2.718;2023-04-27T02:22:35;101356.09;;;15.71;100.00
51460;BME280;37534;39.772;2.718;2023-04-27T02:25:01;101358.72;;;15.71;100.00
51460;BME280;37534;39.772;2.718;2023-04-27T02:27:27;101360.88;;;15.60;100.00
51460;BME280;37534;39.772;2.718;2023-04-27T02:29:52;101354.00;;;15.57;100.00
51460;BME280;37534;39.772;2.718;2023-04-27T02:32:18;101362.75;;;15.56;100.00
51460;BME280;37534;39.772;2.718;2023-04-27T02:34:43;101363.91;;;15.71;100.00
51460;BME280;37534;39.772;2.718;2023-04-27T02:37:09;101356.50;;;15.61;100.00
51460;BME280;37534;39.772;2.718;2023-04-27T02:39:35;101370.25;;;15.64;100.00
51460;BME280;37534;39.772;2.718;2023-04-27T02:42:01;101358.13;;;15.63;100.00
51460;BME280;37534;39.772;2.718;2023-04-27T02:44:28;101371.88;;;15.67;100.00
51460;BME280;37534;39.772;2.718;2023-04-27T02:46:53;101367.81;;;15.59;100.00
51460;BME280;37534;39.772;2.718;2023-04-27T02:49:19;101368.38;;;15.68;100.00
51460;BME280;37534;39.772;2.718;2023-04-27T02:51:45;101364.41;;;15.57;100.00
51460;BME280;37534;39.772;2.718;2023-04-27T02:54:10;101378.63;;;15.72;100.00
51460;BME280;37534;39.772;2.718;2023-04-27T02:56:36;101369.06;;;15.73;100.00
51460;BME280;37534;39.772;2.718;2023-04-27T02:59:01;101360.94;;;15.82;100.00
51460;BME280;37534;39.772;2.718;2023-04-27T03:01:27;101358.28;;;15.84;100.00
51460;BME280;37534;39.772;2.718;2023-04-27T03:03:52;101363.03;;;15.72;100.00
51460;BME280;37534;39.772;2.718;2023-04-27T03:06:18;101365.47;;;15.77;100.00
51460;BME280;37534;39.772;2.718;2023-04-27T03:08:43;101361.25;;;15.74;100.00
51460;BME280;37534;39.772;2.718;2023-04-27T03:11:09;101362.94;;;15.74;100.00
51460;BME280;37534;39.772;2.718;2023-04-27T03:13:36;101345.88;;;15.67;100.00
51460;BME280;37534;39.772;2.718;2023-04-27T03:16:08;101354.88;;;15.58;100.00
51460;BME280;37534;39.772;2.718;2023-04-27T03:18:34;101354.19;;;15.53;100.00
51460;BME280;37534;39.772;2.718;2023-04-27T03:21:09;101358.72;;;15.48;100.00
51460;BME280;37534;39.772;2.718;2023-04-27T03:23:35;101376.88;;;15.49;100.00
51460;BME280;37534;39.772;2.718;2023-04-27T03:26:08;101367.31;;;15.50;100.00
51460;BME280;37534;39.772;2.718;2023-04-27T03:28:34;101364.16;;;15.65;100.00
51460;BME280;37534;39.772;2.718;2023-04-27T03:31:03;101340.50;;;15.48;100.00
51460;BME280;37534;39.772;2.718;2023-04-27T03:33:29;101358.28;;;15.60;100.00
51460;BME280;37534;39.772;2.718;2023-04-27T03:35:55;101358.28;;;15.60;100.00
51460;BME280;37534;39.772;2.718;2023-04-27T03:38:23;101352.38;;;15.55;100.00
51460;BME280;37534;39.772;2.718;2023-04-27T03:40:49;101351.94;;;15.67;100.00
51460;BME280;37534;39.772;2.718;2023-04-27T03:43:14;101331.13;;;15.67;100.00
51460;BME280;37534;39.772;2.718;2023-04-27T03:45:40;101343.81;;;15.76;100.00
51460;BME280;37534;39.772;2.718;2023-04-27T03:48:06;101328.28;;;15.73;100.00
51460;BME280;37534;39.772;2.718;2023-04-27T03:50:32;101331.81;;;15.72;100.00
51460;BME280;37534;39.772;2.718;2023-04-27T03:52:57;101325.97;;;15.66;100.00
51460;BME280;37534;39.772;2.718;2023-04-27T03:55:23;101315.97;;;15.55;100.00
51460;BME280;37534;39.772;2.718;2023-04-27T03:57:50;101335.75;;;15.59;100.00
51460;BME280;37534;39.772;2.718;2023-04-27T04:00:16;101328.00;;;15.57;100.00
51460;BME280;37534;39.772;2.718;2023-04-27T04:02:43;101334.13;;;15.56;100.00
51460;BME280;37534;39.772;2.718;2023-04-27T04:05:08;101320.59;;;15.47;100.00
51460;BME280;37534;39.772;2.718;2023-04-27T04:07:34;101329.09;;;15.52;100.00
51460;BME280;37534;39.772;2.718;2023-04-27T04:10:00;101317.78;;;15.53;100.00
51460;BME280;37534;39.772;2.718;2023-04-27T04:12:26;101314.94;;;15.59;100.00
51460;BME280;37534;39.772;2.718;2023-04-27T04:14:52;101317.88;;;15.73;100.00
51460;BME280;37534;39.772;2.718;2023-04-27T04:17:17;101306.69;;;15.71;100.00
51460;BME280;37534;39.772;2.718;2023-04-27T04:19:43;101317.34;;;15.65;100.00
51460;BME280;37534;39.772;2.718;2023-04-27T04:22:09;101315.69;;;15.86;100.00
51460;BME280;37534;39.772;2.718;2023-04-27T04:24:34;101322.59;;;15.87;100.00
51460;BME280;37534;39.772;2.718;2023-04-27T04:27:00;101323.91;;;15.75;100.00
51460;BME280;37534;39.772;2.718;2023-04-27T04:29:27;101323.06;;;15.73;100.00
51460;BME280;37534;39.772;2.718;2023-04-27T04:31:54;101326.81;;;15.66;100.00
51460;BME280;37534;39.772;2.718;2023-04-27T04:34:20;101331.81;;;15.72;100.00
51460;BME280;37534;39.772;2.718;2023-04-27T04:36:47;101327.00;;;16.07;100.00
51460;BME280;37534;39.772;2.718;2023-04-27T04:39:16;101330.19;;;16.15;100.00
51460;BME280;37534;39.772;2.718;2023-04-27T04:41:44;101334.75;;;16.09;100.00
51460;BME280;37534;39.772;2.718;2023-04-27T04:44:09;101331.06;;;16.14;100.00
51460;BME280;37534;39.772;2.718;2023-04-27T04:46:35;101324.22;;;16.34;100.00
51460;BME280;37534;39.772;2.718;2023-04-27T04:49:01;101322.78;;;16.27;100.00
51460;BME280;37534;39.772;2.718;2023-04-27T04:51:27;101320.84;;;16.32;100.00
51460;BME280;37534;39.772;2.718;2023-04-27T04:53:52;101326.09;;;16.30;100.00
51460;BME280;37534;39.772;2.718;2023-04-27T04:56:18;101323.50;;;16.52;100.00
51460;BME280;37534;39.772;2.718;2023-04-27T04:58:43;101314.09;;;16.48;100.00
51460;BME280;37534;39.772;2.718;2023-04-27T05:01:09;101329.47;;;16.54;100.00
51460;BME280;37534;39.772;2.718;2023-04-27T05:03:35;101320.06;;;16.30;100.00
51460;BME280;37534;39.772;2.718;2023-04-27T05:06:00;101331.44;;;16.27;100.00
51460;BME280;37534;39.772;2.718;2023-04-27T05:08:26;101327.16;;;16.26;100.00
51460;BME280;37534;39.772;2.718;2023-04-27T05:10:52;101331.13;;;16.35;100.00
51460;BME280;37534;39.772;2.718;2023-04-27T05:13:18;101319.88;;;16.34;100.00
51460;BME280;37534;39.772;2.718;2023-04-27T05:15:44;101338.16;;;16.33;100.00
51460;BME280;37534;39.772;2.718;2023-04-27T05:18:10;101328.97;;;16.24;100.00
51460;BME280;37534;39.772;2.718;2023-04-27T05:20:36;101343.50;;;16.30;100.00
51460;BME280;37534;39.772;2.718;2023-04-27T05:23:01;101342.81;;;16.25;100.00
51460;BME280;37534;39.772;2.718;2023-04-27T05:25:31;101350.63;;;16.25;100.00
51460;BME280;37534;39.772;2.718;2023-04-27T05:27:57;101343.84;;;16.21;100.00
51460;BME280;37534;39.772;2.718;2023-04-27T05:30:23;101359.13;;;16.30;100.00
51460;BME280;37534;39.772;2.718;2023-04-27T05:32:48;101343.59;;;16.27;100.00
51460;BME280;37534;39.772;2.718;2023-04-27T05:35:14;101357.06;;;16.38;100.00
51460;BME280;37534;39.772;2.718;2023-04-27T05:37:40;101359.41;;;16.44;100.00
51460;BME280;37534;39.772;2.718;2023-04-27T05:40:06;101353.91;;;16.30;100.00
51460;BME280;37534;39.772;2.718;2023-04-27T05:42:34;101353.78;;;16.33;100.00
51460;BME280;37534;39.772;2.718;2023-04-27T05:44:59;101361.91;;;16.47;100.00
51460;BME280;37534;39.772;2.718;2023-04-27T05:47:25;101361.91;;;16.47;100.00
51460;BME280;37534;39.772;2.718;2023-04-27T05:49:51;101364.50;;;16.47;100.00
51460;BME280;37534;39.772;2.718;2023-04-27T05:52:18;101374.00;;;16.48;100.00
51460;BME280;37534;39.772;2.718;2023-04-27T05:54:47;101381.81;;;16.48;100.00
51460;BME280;37534;39.772;2.718;2023-04-27T05:57:14;101377.19;;;16.55;100.00
51460;BME280;37534;39.772;2.718;2023-04-27T05:59:40;101376.66;;;16.69;100.00
51460;BME280;37534;39.772;2.718;2023-04-27T06:02:06;101381.41;;;16.80;100.00
51460;BME280;37534;39.772;2.718;2023-04-27T06:04:32;101383.72;;;16.87;100.00
51460;BME280;37534;39.772;2.718;2023-04-27T06:06:58;101379.44;;;16.86;100.00
51460;BME280;37534;39.772;2.718;2023-04-27T06:09:24;101380.88;;;16.94;100.00
51460;BME280;37534;39.772;2.718;2023-04-27T06:11:50;101371.88;;;17.01;100.00
51460;BME280;37534;39.772;2.718;2023-04-27T06:14:16;101389.69;;;17.12;100.00
51460;BME280;37534;39.772;2.718;2023-04-27T06:16:42;101381.13;;;17.28;100.00
51460;BME280;37534;39.772;2.718;2023-04-27T06:19:08;101376.28;;;17.40;98.56
51460;BME280;37534;39.772;2.718;2023-04-27T06:21:34;101364.94;;;17.41;97.83
51460;BME280;37534;39.772;2.718;2023-04-27T06:24:00;101382.38;;;17.59;97.79
51460;BME280;37534;39.772;2.718;2023-04-27T06:26:26;101366.78;;;17.58;97.92
51460;BME280;37534;39.772;2.718;2023-04-27T06:28:53;101381.72;;;17.75;98.11
51460;BME280;37534;39.772;2.718;2023-04-27T06:31:19;101388.34;;;17.82;98.31
51460;BME280;37534;39.772;2.718;2023-04-27T06:33:45;101390.69;;;17.88;98.50
51460;BME280;37534;39.772;2.718;2023-04-27T06:36:11;101387.72;;;17.96;99.61
51460;BME280;37534;39.772;2.718;2023-04-27T06:38:36;101386.94;;;18.13;97.05
51460;BME280;37534;39.772;2.718;2023-04-27T06:41:02;101397.59;;;18.27;95.78
51460;BME280;37534;39.772;2.718;2023-04-27T06:43:28;101380.06;;;18.29;97.47
51460;BME280;37534;39.772;2.718;2023-04-27T06:45:54;101389.47;;;18.51;93.42
51460;BME280;37534;39.772;2.718;2023-04-27T06:48:20;101386.75;;;18.71;89.52
51460;BME280;37534;39.772;2.718;2023-04-27T06:50:46;101395.16;;;18.95;89.88
51460;BME280;37534;39.772;2.718;2023-04-27T06:53:11;101382.69;;;19.00;90.79
51460;BME280;37534;39.772;2.718;2023-04-27T06:55:38;101385.00;;;19.24;87.86
51460;BME280;37534;39.772;2.718;2023-04-27T06:58:03;101387.06;;;19.35;87.44
51460;BME280;37534;39.772;2.718;2023-04-27T07:00:30;101382.69;;;19.51;81.24
51460;BME280;37534;39.772;2.718;2023-04-27T07:02:55;101358.91;;;19.56;80.87
51460;BME280;37534;39.772;2.718;2023-04-27T07:05:21;101372.31;;;19.83;78.48
51460;BME280;37534;39.772;2.718;2023-04-27T07:07:47;101362.25;;;20.07;77.47
51460;BME280;37534;39.772;2.718;2023-04-27T07:10:12;101370.50;;;20.31;75.71
51460;BME280;37534;39.772;2.718;2023-04-27T07:12:39;101367.88;;;20.47;75.31
51460;BME280;37534;39.772;2.718;2023-04-27T07:15:05;101375.19;;;20.73;75.93
51460;BME280;37534;39.772;2.718;2023-04-27T07:17:31;101379.75;;;20.99;72.20
51460;BME280;37534;39.772;2.718;2023-04-27T07:19:57;101390.00;;;21.18;68.54
51460;BME280;37534;39.772;2.718;2023-04-27T07:22:23;101376.78;;;21.34;69.31
51460;BME280;37534;39.772;2.718;2023-04-27T07:24:49;101381.56;;;21.42;66.83
51460;BME280;37534;39.772;2.718;2023-04-27T07:27:15;101367.03;;;21.36;66.56
51460;BME280;37534;39.772;2.718;2023-04-27T07:29:40;101382.88;;;21.63;65.78
51460;BME280;37534;39.772;2.718;2023-04-27T07:32:07;101377.63;;;21.63;63.42
51460;BME280;37534;39.772;2.718;2023-04-27T07:34:33;101383.19;;;21.73;64.07
51460;BME280;37534;39.772;2.718;2023-04-27T07:36:59;101369.22;;;21.73;65.12
51460;BME280;37534;39.772;2.718;2023-04-27T07:39:26;101378.72;;;21.88;66.31
51460;BME280;37534;39.772;2.718;2023-04-27T07:41:52;101371.50;;;21.92;63.08
51460;BME280;37534;39.772;2.718;2023-04-27T07:44:18;101390.59;;;22.08;61.60
51460;BME280;37534;39.772;2.718;2023-04-27T07:46:44;101390.03;;;22.17;60.05
51460;BME280;37534;39.772;2.718;2023-04-27T07:49:14;101382.47;;;22.26;62.14
51460;BME280;37534;39.772;2.718;2023-04-27T07:51:40;101373.69;;;22.27;61.67
51460;BME280;37534;39.772;2.718;2023-04-27T07:54:08;101385.44;;;22.48;62.50
51460;BME280;37534;39.772;2.718;2023-04-27T07:56:33;101379.66;;;22.56;60.69
51460;BME280;37534;39.772;2.718;2023-04-27T07:59:00;101369.91;;;22.58;58.74
51460;BME280;37534;39.772;2.718;2023-04-27T08:01:25;101369.59;;;22.63;56.05
51460;BME280;37534;39.772;2.718;2023-04-27T08:03:51;101377.09;;;22.69;56.51
51460;BME280;37534;39.772;2.718;2023-04-27T08:06:17;101366.34;;;22.72;56.16
51460;BME280;37534;39.772;2.718;2023-04-27T08:08:43;101369.31;;;22.80;54.98
51460;BME280;37534;39.772;2.718;2023-04-27T08:11:09;101382.16;;;22.97;56.36
51460;BME280;37534;39.772;2.718;2023-04-27T08:13:35;101380.41;;;23.11;54.83
51460;BME280;37534;39.772;2.718;2023-04-27T08:16:01;101363.56;;;23.13;54.50
51460;BME280;37534;39.772;2.718;2023-04-27T08:18:26;101366.94;;;23.28;56.18
51460;BME280;37534;39.772;2.718;2023-04-27T08:20:53;101372.59;;;23.48;56.86
51460;BME280;37534;39.772;2.718;2023-04-27T08:23:18;101375.09;;;23.62;58.01
51460;BME280;37534;39.772;2.718;2023-04-27T08:25:44;101375.94;;;23.76;58.21
51460;BME280;37534;39.772;2.718;2023-04-27T08:28:09;101370.03;;;23.85;57.11
51460;BME280;37534;39.772;2.718;2023-04-27T08:30:35;101371.78;;;23.97;57.32
51460;BME280;37534;39.772;2.718;2023-04-27T08:33:00;101388.38;;;24.10;56.66
51460;BME280;37534;39.772;2.718;2023-04-27T08:35:26;101383.59;;;24.16;57.31
51460;BME280;37534;39.772;2.718;2023-04-27T08:37:51;101381.56;;;24.32;56.33
51460;BME280;37534;39.772;2.718;2023-04-27T08:40:18;101375.94;;;24.48;56.68
51460;BME280;37534;39.772;2.718;2023-04-27T08:42:56;101376.66;;;24.63;54.32
51460;BME280;37534;39.772;2.718;2023-04-27T08:45:23;101381.50;;;24.80;54.15
51460;BME280;37534;39.772;2.718;2023-04-27T08:47:49;101371.91;;;24.79;53.23
51460;BME280;37534;39.772;2.718;2023-04-27T08:50:15;101387.72;;;24.79;54.04
51460;BME280;37534;39.772;2.718;2023-04-27T08:52:45;101393.22;;;24.76;53.64
51460;BME280;37534;39.772;2.718;2023-04-27T08:55:11;101391.38;;;24.90;54.24
51460;BME280;37534;39.772;2.718;2023-04-27T08:57:37;101395.09;;;25.10;54.36
51460;BME280;37534;39.772;2.718;2023-04-27T09:00:03;101392.16;;;25.26;53.00
51460;BME280;37534;39.772;2.718;2023-04-27T09:02:47;101386.41;;;25.43;52.02
51460;BME280;37534;39.772;2.718;2023-04-27T09:05:20;101381.59;;;25.59;53.82
51460;BME280;37534;39.772;2.718;2023-04-27T09:08:03;101388.19;;;25.76;53.76
51460;BME280;37534;39.772;2.718;2023-04-27T09:10:48;101382.28;;;25.95;54.38
51460;BME280;37534;39.772;2.718;2023-04-27T09:13:15;101386.69;;;26.17;50.94
51460;BME280;37534;39.772;2.718;2023-04-27T09:18:15;101399.66;;;26.53;51.81
51460;BME280;37534;39.772;2.718;2023-04-27T09:20:45;101397.59;;;26.56;49.86
51460;BME280;37534;39.772;2.718;2023-04-27T09:23:27;101399.88;;;26.61;49.70
51460;BME280;37534;39.772;2.718;2023-04-27T09:25:53;101400.78;;;26.71;50.02
51460;BME280;37534;39.772;2.718;2023-04-27T09:28:21;101403.56;;;26.91;48.34
51460;BME280;37534;39.772;2.718;2023-04-27T09:30:54;101409.06;;;26.99;46.63
51460;BME280;37534;39.772;2.718;2023-04-27T09:33:28;101415.31;;;27.19;45.69
51460;BME280;37534;39.772;2.718;2023-04-27T09:35:56;101410.13;;;27.18;44.24
51460;BME280;37534;39.772;2.718;2023-04-27T09:38:22;101417.63;;;26.91;43.38
51460;BME280;37534;39.772;2.718;2023-04-27T09:40:51;101406.91;;;26.93;43.46
51460;BME280;37534;39.772;2.718;2023-04-27T09:43:17;101416.81;;;26.91;43.19
51460;BME280;37534;39.772;2.718;2023-04-27T09:45:43;101404.91;;;26.64;42.88
51460;BME280;37534;39.772;2.718;2023-04-27T09:48:10;101411.50;;;26.91;43.04
51460;BME280;37534;39.772;2.718;2023-04-27T09:50:41;101406.59;;;27.07;43.31
51460;BME280;37534;39.772;2.718;2023-04-27T09:53:12;101425.38;;;27.25;43.17
51460;BME280;37534;39.772;2.718;2023-04-27T09:55:56;101418.84;;;27.50;42.87
51460;BME280;37534;39.772;2.718;2023-04-27T10:07:01;101419.34;;;27.75;43.02
51460;BME280;37534;39.772;2.718;2023-04-27T10:09:44;101425.59;;;27.74;41.69
51460;BME280;37534;39.772;2.718;2023-04-27T10:12:19;101433.38;;;27.97;42.24
51460;BME280;37534;39.772;2.718;2023-04-27T10:14:55;101427.28;;;28.25;40.99
51460;BME280;37534;39.772;2.718;2023-04-27T10:17:33;101416.25;;;28.30;40.49
51460;BME280;37534;39.772;2.718;2023-04-27T10:20:02;101431.19;;;28.51;40.74
51460;BME280;37534;39.772;2.718;2023-04-27T10:22:38;101424.66;;;28.84;40.35
51460;BME280;37534;39.772;2.718;2023-04-27T10:28:13;101429.94;;;28.84;39.79
51460;BME280;37534;39.772;2.718;2023-04-27T10:30:34;101426.56;;;28.92;39.27
51460;BME280;37534;39.772;2.718;2023-04-27T10:33:21;101431.19;;;28.99;38.93
51460;BME280;37534;39.772;2.718;2023-04-27T10:35:57;101440.81;;;29.00;37.71
51460;BME280;37534;39.772;2.718;2023-04-27T10:38:28;101441.09;;;29.07;37.88
51460;BME280;37534;39.772;2.718;2023-04-27T10:40:59;101442.31;;;29.32;37.57
51460;BME280;37534;39.772;2.718;2023-04-27T10:43:30;101450.28;;;29.32;37.72
51460;BME280;37534;39.772;2.718;2023-04-27T10:46:13;101450.81;;;29.46;36.84
51460;BME280;37534;39.772;2.718;2023-04-27T10:48:40;101453.47;;;29.46;36.86
51460;BME280;37534;39.772;2.718;2023-04-27T10:51:06;101443.28;;;29.31;36.59
51460;BME280;37534;39.772;2.718;2023-04-27T10:53:35;101443.63;;;29.09;36.83
51460;BME280;37534;39.772;2.718;2023-04-27T10:56:01;101440.13;;;29.18;36.43
51460;BME280;37534;39.772;2.718;2023-04-27T10:58:28;101451.72;;;29.54;36.98
51460;BME280;37534;39.772;2.718;2023-04-27T11:00:53;101440.47;;;29.33;36.41
51460;BME280;37534;39.772;2.718;2023-04-27T11:03:22;101449.31;;;29.24;37.51
51460;BME280;37534;39.772;2.718;2023-04-27T11:05:57;101424.91;;;28.91;37.76
51460;BME280;37534;39.772;2.718;2023-04-27T11:08:23;101426.56;;;29.49;36.35
51460;BME280;37534;39.772;2.718;2023-04-27T11:10:50;101414.31;;;29.93;36.26
51460;BME280;37534;39.772;2.718;2023-04-27T11:13:21;101419.06;;;29.34;36.03
51460;BME280;37534;39.772;2.718;2023-04-27T11:18:18;101414.97;;;30.23;34.74
51460;BME280;37534;39.772;2.718;2023-04-27T11:20:47;101415.72;;;30.33;34.13
51460;BME280;37534;39.772;2.718;2023-04-27T11:23:27;101419.50;;;30.13;34.38
51460;BME280;37534;39.772;2.718;2023-04-27T11:25:54;101420.56;;;29.84;34.52
51460;BME280;37534;39.772;2.718;2023-04-27T11:28:21;101413.78;;;29.62;35.57
51460;BME280;37534;39.772;2.718;2023-04-27T11:30:57;101419.44;;;29.87;35.98
51460;BME280;37534;39.772;2.718;2023-04-27T11:33:23;101403.63;;;30.21;35.93
51460;BME280;37534;39.772;2.718;2023-04-27T11:35:49;101410.78;;;30.21;35.13
51460;BME280;37534;39.772;2.718;2023-04-27T11:38:15;101399.78;;;30.51;35.17
51460;BME280;37534;39.772;2.718;2023-04-27T11:40:41;101389.34;;;30.58;35.15
51460;BME280;37534;39.772;2.718;2023-04-27T11:43:11;101404.41;;;30.49;34.93
51460;BME280;37534;39.772;2.718;2023-04-27T11:45:41;101405.25;;;30.50;35.48
51460;BME280;37534;39.772;2.718;2023-04-27T11:48:13;101398.50;;;30.38;36.11
51460;BME280;37534;39.772;2.718;2023-04-27T11:50:38;101386.91;;;30.29;36.41
51460;BME280;37534;39.772;2.718;2023-04-27T11:53:04;101379.91;;;30.28;35.80
51460;BME280;37534;39.772;2.718;2023-04-27T11:55:34;101375.59;;;30.45;36.14
51460;BME280;37534;39.772;2.718;2023-04-27T11:58:00;101393.00;;;30.39;35.63
51460;BME280;37534;39.772;2.718;2023-04-27T12:00:25;101389.22;;;30.24;35.44
51460;BME280;37534;39.772;2.718;2023-04-27T12:02:51;101385.78;;;30.49;35.12
51460;BME280;37534;39.772;2.718;2023-04-27T12:05:17;101378.34;;;30.35;35.46
51460;BME280;37534;39.772;2.718;2023-04-27T12:07:43;101386.00;;;30.20;35.16
51460;BME280;37534;39.772;2.718;2023-04-27T12:10:09;101390.47;;;30.02;35.41
51460;BME280;37534;39.772;2.718;2023-04-27T12:12:35;101379.75;;;29.93;36.34
51460;BME280;37534;39.772;2.718;2023-04-27T12:15:01;101375.13;;;30.13;36.81
51460;BME280;37534;39.772;2.718;2023-04-27T12:17:26;101367.06;;;29.87;36.29
51460;BME280;37534;39.772;2.718;2023-04-27T12:19:52;101361.22;;;30.02;36.25
51460;BME280;37534;39.772;2.718;2023-04-27T12:22:17;101366.28;;;30.13;35.58
51460;BME280;37534;39.772;2.718;2023-04-27T12:24:43;101360.91;;;30.05;35.96
51460;BME280;37534;39.772;2.718;2023-04-27T12:27:09;101355.66;;;29.95;36.55
51460;BME280;37534;39.772;2.718;2023-04-27T12:29:34;101344.81;;;30.06;36.33
51460;BME280;37534;39.772;2.718;2023-04-27T12:32:01;101353.63;;;29.89;36.88
51460;BME280;37534;39.772;2.718;2023-04-27T12:34:26;101342.00;;;29.62;36.95
51460;BME280;37534;39.772;2.718;2023-04-27T12:36:55;101350.38;;;29.39;36.65
51460;BME280;37534;39.772;2.718;2023-04-27T12:39:22;101339.84;;;29.20;37.14
51460;BME280;37534;39.772;2.718;2023-04-27T12:41:52;101334.97;;;29.15;37.38
51460;BME280;37534;39.772;2.718;2023-04-27T12:44:19;101331.09;;;29.37;36.77
51460;BME280;37534;39.772;2.718;2023-04-27T12:46:45;101332.09;;;29.54;36.53
51460;BME280;37534;39.772;2.718;2023-04-27T12:49:12;101333.34;;;29.60;36.61
51460;BME280;37534;39.772;2.718;2023-04-27T12:51:38;101336.06;;;29.68;37.23
51460;BME280;37534;39.772;2.718;2023-04-27T12:54:05;101326.97;;;29.71;36.68
51460;BME280;37534;39.772;2.718;2023-04-27T12:56:32;101331.06;;;29.65;36.55
51460;BME280;37534;39.772;2.718;2023-04-27T12:58:58;101318.97;;;29.53;36.77
51460;BME280;37534;39.772;2.718;2023-04-27T13:01:24;101331.19;;;29.18;37.16
51460;BME280;37534;39.772;2.718;2023-04-27T13:03:53;101325.66;;;29.29;37.39